EDFH/HHN METAR and TAF weather

Enter ICAO airport designator
Station Type Date Time Source
EDFH METAR 2020/07/08 01:20 UTC NOAA

EDFH 080120Z 25005KT CAVOK 14/07 Q1017


Station Type Date Time Source
EDFH Decoded METAR 2020/07/08 01:20 UTC NOAA

Hahn, Germany (EDFH) 49-57N 007-16E 498M
Jul 07, 2020 - 09:20 PM EDT / 2020.07.08 0120 UTC
Wind: from the WSW (250 degrees) at 6 MPH (5 KT):0
Visibility: greater than 7 mile(s):0
Temperature: 57 F (14 C)
Dew Point: 44 F (7 C)
Relative Humidity: 62%
Pressure (altimeter): 30.03 in. Hg (1017 hPa)
ob: EDFH 080120Z 25005KT CAVOK 14/07 Q1017
cycle: 1

Station Type Date Time Source
EDFH TAF 2020/07/07 18:27 UTC NOAA

TAF EDFH 071700Z 0718/0818 28008KT CAVOK
BECMG 0719/0721 19005KT
BECMG 0803/0805 26007KT
BECMG 0805/0807 26012KT
TEMPO 0813/0818 4000 RADZ BKN012

Example: see airport list